Angra dos Reis, Brazil
Current Conditions -  °F | °C
As of 7:00 AM on Sunday 23 Nov 2014 (Local Time) from SBSC Reporting Station
Broken Clouds Broken Clouds  
Wind Chill: 77°   Ceiling: 10000
Heat Index: 79°   Visibility: 4mi
Dew Point: 68°   Wind: 14mph
Humidity: 74%   Direction: 30°NNE
Pressure: 29.8"   Gusts: NA
Location:  23°S, 44.32°W
Report Text: SBSC 230900Z 03012KT 7000 SCT016 BKN100 25/20 Q1009
Loading
Personal Weather Stations






























Interactive Weather Map New forecast layout! Learn more

10-Day Weather Forecast

Advertisements
Track Severe Weather on mobile